Home > Products > Valid Products > TAF

000
FTUS45 KRIW 280717 AAA
TAFCPR
TAF AMD
KCPR 280717Z 2807/2906 23008KT 6SM FU SCT120
     FM282000 VRB06KT P6SM SCT120=



000
FTUS45 KRIW 280520
TAFRIW
TAF
KRIW 280520Z 2806/2906 32008KT 6SM FU VCSH SCT080 BKN100
     FM280700 29008KT 6SM FU FEW120
     FM281900 VRB06KT P6SM SCT110
     FM290400 28008KT P6SM FEW120 SCT200=



000
FTUS45 KRIW 280520
TAFBPI
TAF
KBPI 280520Z 2806/2906 VRB06KT P6SM FEW110
     FM281900 31008KT P6SM SCT100=



000
FTUS45 KRIW 280520
TAFCPR
TAF
KCPR 280520Z 2806/2906 32011KT 5SM -SHRA FU SCT070 OVC100
     FM281000 23008KT 6SM FU FEW120
     FM282000 VRB06KT P6SM SCT120=



000
FTUS45 KRIW 280520
TAFJAC
TAF
KJAC 280520Z 2806/2906 01007KT P6SM FEW110
     FM282000 20011KT P6SM SCT100
     FM290400 36006KT P6SM FEW120 BKN200
      AMD LTD TO CLD VIS AND WIND=



000
FTUS45 KRIW 280520
TAFWRL
TAF
KWRL 280520Z 2806/2906 16007KT 5SM FU FEW110 SCT200
     FM282000 07008KT P6SM SCT110
     FM290400 16008KT P6SM FEW120 SCT200=



000
FTUS45 KRIW 280520
TAFRKS
TAF
KRKS 280520Z 2806/2906 04008KT P6SM FEW060 SCT090
     FM280900 24006KT P6SM FEW120
     FM281800 29009KT P6SM SCT100
     FM290300 14007KT P6SM FEW120 SCT200=



000
FTUS45 KRIW 280520
TAFLND
TAF
KLND 280520Z 2806/2906 31009KT 5SM FU VCSH SCT080 BKN100
     FM280700 VRB06KT 6SM FU FEW120
     FM282000 13007KT P6SM SCT110
     FM290300 24008KT P6SM FEW120 SCT200=



000
FTUS45 KRIW 280520
TAFCPR
TAF
KCPR 280520Z 2806/2906 32011KT 5SM -SHRA FU SCT070 OVC100
     FM281000 23008KT 6SM FU FEW120
     FM282000 VRB06KT P6SM SCT120=



000
FTUS45 KRIW 280520
TAFCOD
TAF
KCOD 280520Z 2806/2906 23009KT P6SM FEW120 SCT200
     FM281600 03008KT 6SM FU FEW100
     FM282000 13009KT P6SM SCT100
     FM290300 22010G18KT P6SM FEW120 SCT200
      AMD LTD TO CLD VIS AND WIND=



000
FTUS45 KRIW 280520
TAFRKS
TAF
KRKS 280520Z 2806/2906 04008KT P6SM FEW060 SCT090
     FM280900 24006KT P6SM FEW120
     FM281800 29009KT P6SM SCT100
     FM290300 14007KT P6SM FEW120 SCT200=



000
FTUS45 KRIW 280520
TAFLND
TAF
KLND 280520Z 2806/2906 31009KT 5SM FU VCSH SCT080 BKN100
     FM280700 VRB06KT 6SM FU FEW120
     FM282000 13007KT P6SM SCT110
     FM290300 24008KT P6SM FEW120 SCT200=



000
FTUS45 KRIW 280520
TAFBPI
TAF
KBPI 280520Z 2806/2906 VRB06KT P6SM FEW110
     FM281900 31008KT P6SM SCT100=



000
FTUS45 KRIW 280520
TAFWRL
TAF
KWRL 280520Z 2806/2906 16007KT 5SM FU FEW110 SCT200
     FM282000 07008KT P6SM SCT110
     FM290400 16008KT P6SM FEW120 SCT200=



000
FTUS45 KRIW 280520
TAFJAC
TAF
KJAC 280520Z 2806/2906 01007KT P6SM FEW110
     FM282000 20011KT P6SM SCT100
     FM290400 36006KT P6SM FEW120 BKN200
      AMD LTD TO CLD VIS AND WIND=



000
FTUS45 KRIW 280520
TAFRIW
TAF
KRIW 280520Z 2806/2906 32008KT 6SM FU VCSH SCT080 BKN100
     FM280700 29008KT 6SM FU FEW120
     FM281900 VRB06KT P6SM SCT110
     FM290400 28008KT P6SM FEW120 SCT200=



000
FTUS45 KRIW 280520
TAFCOD
TAF
KCOD 280520Z 2806/2906 23009KT P6SM FEW120 SCT200
     FM281600 03008KT 6SM FU FEW100
     FM282000 13009KT P6SM SCT100
     FM290300 22010G18KT P6SM FEW120 SCT200
      AMD LTD TO CLD VIS AND WIND=



000
FTUS45 KRIW 280235 AAA
TAFLND
TAF AMD
KLND 280235Z 2803/2824 33012G25KT 5SM -TSRA FU BKN070CB
     FM280330 VRB06KT 5SM FU SCT120
     FM281900 12007KT P6SM BKN100=



000
FTUS45 KRIW 280235 AAA
TAFLND
TAF AMD
KLND 280235Z 2803/2824 33012G25KT 5SM -TSRA FU BKN070CB
     FM280330 VRB06KT 5SM FU SCT120
     FM281900 12007KT P6SM BKN100=



000
FTUS45 KRIW 280233 AAC
TAFRIW
TAF AMD
KRIW 280233Z 2803/2824 32020G28KT 5SM -TSRA FU BKN070CB
     FM280400 32010KT 5SM FU SCT120
     FM281200 28006KT P6SM SKC
     FM281800 VRB05KT P6SM SCT100=



000
FTUS45 KRIW 280233 AAC
TAFRIW
TAF AMD
KRIW 280233Z 2803/2824 32020G28KT 5SM -TSRA FU BKN070CB
     FM280400 32010KT 5SM FU SCT120
     FM281200 28006KT P6SM SKC
     FM281800 VRB05KT P6SM SCT100=



000
FTUS45 KRIW 280215 AAB
TAFWRL
TAF AMD
KWRL 280215Z 2802/2824 33009KT 4SM FU VCSH SCT080 BKN110
     FM280500 VRB06KT 4SM FU SCT120
     FM282000 07008KT P6SM FEW100 SCT200=



000
FTUS45 KRIW 280213 AAA
TAFCOD
TAF AMD
KCOD 280213Z 2802/2824 23010G18KT 5SM FU VCSH SCT080 BKN110
     FM280300 23012G18KT 5SM FU SCT110
     FM281200 VRB06KT 5SM FU FEW100 SCT200
     FM282000 12008KT P6SM SCT150
      AMD LTD TO CLD VIS AND WIND=



000
FTUS45 KRIW 280118 AAB
TAFRIW
TAF AMD
KRIW 280118Z 2801/2824 01022G30KT 5SM -TSRA FU BKN070CB
     FM280230 34011KT 5SM FU VCTS SCT070CB BKN100
     FM280400 32010KT 5SM FU SCT120
     FM281200 28006KT P6SM SKC
     FM281800 VRB05KT P6SM SCT100=



000
FTUS45 KRIW 280118 AAB
TAFRIW
TAF AMD
KRIW 280118Z 2801/2824 01022G30KT 5SM -TSRA FU BKN070CB
     FM280230 34011KT 5SM FU VCTS SCT070CB BKN100
     FM280400 32010KT 5SM FU SCT120
     FM281200 28006KT P6SM SKC
     FM281800 VRB05KT P6SM SCT100=



000
FTUS45 KRIW 280005 AAA
TAFWRL
TAF AMD
KWRL 280005Z 2800/2824 VRB10G25KT P6SM VCTS SCT080CB BKN110
     FM280200 34008KT P6SM VCSH SCT090 BKN150
     FM280500 VRB06KT P6SM SCT120=



000
FTUS45 KRIW 272335
TAFCPR
TAF
KCPR 272335Z 2800/2824 VRB07G14KT P6SM VCSH SCT070 BKN110
     FM280800 22008KT P6SM SCT150
     FM282000 VRB06KT P6SM SCT120=



000
FTUS45 KRIW 272335
TAFRIW
TAF
KRIW 272335Z 2800/2824 33010G16KT P6SM VCSH SCT070 BKN110
     FM280300 32010KT P6SM SCT120
     FM281200 28006KT P6SM SKC
     FM281800 VRB05KT P6SM SCT100=



000
FTUS45 KRIW 272335
TAFLND
TAF
KLND 272335Z 2800/2824 33010G16KT P6SM VCTS SCT070CB BKN120
     FM280300 24007KT P6SM SCT120
     FM281400 VRB06KT P6SM SKC
     FM281900 12007KT P6SM BKN100=



000
FTUS45 KRIW 272335
TAFRKS
TAF
KRKS 272335Z 2800/2824 34012G25KT P6SM -TSRA BKN070CB
     FM280100 VRB08G15KT P6SM VCTS SCT070CB BKN100
     FM280300 VRB06KT P6SM SCT080
     FM282000 28012KT P6SM SCT080 BKN100=



000
FTUS45 KRIW 272335
TAFRKS
TAF
KRKS 272335Z 2800/2824 34012G25KT P6SM -TSRA BKN070CB
     FM280100 VRB08G15KT P6SM VCTS SCT070CB BKN100
     FM280300 VRB06KT P6SM SCT080
     FM282000 28012KT P6SM SCT080 BKN100=



000
FTUS45 KRIW 272335
TAFCOD
TAF
KCOD 272335Z 2800/2824 29010G18KT 4SM FU VCTS SCT060CB BKN090
     FM280300 23012G18KT P6SM SCT120
     FM281200 VRB06KT P6SM FEW100 SCT200
     FM282000 12008KT P6SM SCT150
      AMD LTD TO CLD VIS AND WIND=



000
FTUS45 KRIW 272335
TAFJAC
TAF
KJAC 272335Z 2800/2824 VRB08G15KT P6SM VCTS SCT060CB BKN110
     FM280300 VRB06KT P6SM SCT110
     FM282100 20011KT P6SM SCT100 BKN150
      AMD LTD TO CLD VIS AND WIND=



000
FTUS45 KRIW 272335
TAFBPI
TAF
KBPI 272335Z 2800/2824 34010G18KT P6SM VCTS SCT070CB BKN110
     FM280300 36008KT P6SM FEW080 SCT110
     FM281300 VRB05KT P6SM FEW120
     FM281800 26007KT P6SM SCT100 BKN200=



000
FTUS45 KRIW 272335
TAFCPR
TAF
KCPR 272335Z 2800/2824 VRB07G14KT P6SM VCSH SCT070 BKN110
     FM280800 22008KT P6SM SCT150
     FM282000 VRB06KT P6SM SCT120=



000
FTUS45 KRIW 272335
TAFRIW
TAF
KRIW 272335Z 2800/2824 33010G16KT P6SM VCSH SCT070 BKN110
     FM280300 32010KT P6SM SCT120
     FM281200 28006KT P6SM SKC
     FM281800 VRB05KT P6SM SCT100=



000
FTUS45 KRIW 272335
TAFWRL
TAF
KWRL 272335Z 2800/2824 34008KT P6SM VCSH SCT090 BKN150
     FM280500 VRB06KT P6SM SCT120=



000
FTUS45 KRIW 272335
TAFLND
TAF
KLND 272335Z 2800/2824 33010G16KT P6SM VCTS SCT070CB BKN120
     FM280300 24007KT P6SM SCT120
     FM281400 VRB06KT P6SM SKC
     FM281900 12007KT P6SM BKN100=



000
FTUS45 KRIW 272335
TAFWRL
TAF
KWRL 272335Z 2800/2824 34008KT P6SM VCSH SCT090 BKN150
     FM280500 VRB06KT P6SM SCT120=



000
FTUS45 KRIW 272335
TAFCOD
TAF
KCOD 272335Z 2800/2824 29010G18KT 4SM FU VCTS SCT060CB BKN090
     FM280300 23012G18KT P6SM SCT120
     FM281200 VRB06KT P6SM FEW100 SCT200
     FM282000 12008KT P6SM SCT150
      AMD LTD TO CLD VIS AND WIND=



000
FTUS45 KRIW 272335
TAFBPI
TAF
KBPI 272335Z 2800/2824 34010G18KT P6SM VCTS SCT070CB BKN110
     FM280300 36008KT P6SM FEW080 SCT110
     FM281300 VRB05KT P6SM FEW120
     FM281800 26007KT P6SM SCT100 BKN200=



000
FTUS45 KRIW 272335
TAFJAC
TAF
KJAC 272335Z 2800/2824 VRB08G15KT P6SM VCTS SCT060CB BKN110
     FM280300 VRB06KT P6SM SCT110
     FM282100 20011KT P6SM SCT100 BKN150
      AMD LTD TO CLD VIS AND WIND=



000
FTUS45 KRIW 272151 AAA
TAFRKS
TAF AMD
KRKS 272151Z 2722/2818 30011G20KT P6SM -TSRA FEW040 BKN070CB
     FM280000 VRB10G18KT P6SM VCTS BKN070CB
     FM280300 VRB06KT P6SM SCT080=



000
FTUS45 KRIW 271959 AAB
TAFJAC
TAF AMD
KJAC 271959Z 2720/2818 VRB05KT P6SM SCT020
     FM272100 24012G18KT P6SM VCTS SCT060CB BKN110
     FM280300 VRB06KT P6SM SCT110
      AMD LTD TO CLD VIS AND WIND=



000
FTUS45 KRIW 271902 AAA
TAFJAC
TAF AMD
KJAC 271902Z 2719/2818 VRB05KT P6SM BKN018
     FM272100 24012G18KT P6SM VCTS SCT060CB BKN110
     FM280300 VRB06KT P6SM SCT110
      AMD LTD TO CLD VIS AND WIND=



000
FTUS45 KRIW 271902 AAA
TAFJAC
TAF AMD
KJAC 271902Z 2719/2818 VRB05KT P6SM BKN018
     FM272100 24012G18KT P6SM VCTS SCT060CB BKN110
     FM280300 VRB06KT P6SM SCT110
      AMD LTD TO CLD VIS AND WIND=



000
FTUS45 KRIW 271720
TAFCPR
TAF
KCPR 271720Z 2718/2818 33010KT P6SM SCT080 SCT120
     FM280200 VRB06KT P6SM SCT120
     FM280800 22008KT P6SM SCT150=



000
FTUS45 KRIW 271720
TAFJAC
TAF
KJAC 271720Z 2718/2818 VRB05KT P6SM SCT020 SCT100
     FM272000 24012G18KT P6SM VCTS SCT060CB BKN110
     FM280300 VRB06KT P6SM SCT110
      AMD LTD TO CLD VIS AND WIND=



000
FTUS45 KRIW 271720
TAFBPI
TAF
KBPI 271720Z 2718/2818 32006KT P6SM SCT090
     FM272100 34010G18KT P6SM VCTS SCT070CB BKN110
     FM280300 36008KT P6SM FEW080 SCT110
     FM281300 VRB05KT P6SM FEW120=



000
FTUS45 KRIW 271720
TAFRIW
TAF
KRIW 271720Z 2718/2818 VRB06KT P6SM FEW080 SCT130
     FM272200 33010G16KT P6SM VCTS SCT070CB BKN120
     FM280300 32010KT P6SM SCT120
     FM281200 28006KT P6SM SKC=



000
FTUS45 KRIW 271720
TAFJAC
TAF
KJAC 271720Z 2718/2818 VRB05KT P6SM SCT020 SCT100
     FM272000 24012G18KT P6SM VCTS SCT060CB BKN110
     FM280300 VRB06KT P6SM SCT110
      AMD LTD TO CLD VIS AND WIND=



000
FTUS45 KRIW 271720
TAFBPI
TAF
KBPI 271720Z 2718/2818 32006KT P6SM SCT090
     FM272100 34010G18KT P6SM VCTS SCT070CB BKN110
     FM280300 36008KT P6SM FEW080 SCT110
     FM281300 VRB05KT P6SM FEW120=



000
FTUS45 KRIW 271720
TAFLND
TAF
KLND 271720Z 2718/2818 VRB06KT P6SM FEW070 SCT120
     FM272100 33010G16KT P6SM VCTS SCT070CB BKN120
     FM280300 24007KT P6SM SCT120
     FM281400 VRB06KT P6SM SKC=



000
FTUS45 KRIW 271720
TAFRKS
TAF
KRKS 271720Z 2718/2818 26013G21KT P6SM SCT070
     FM272300 VRB10G18KT P6SM VCTS BKN070CB
     FM280300 VRB06KT P6SM SCT080=



000
FTUS45 KRIW 271720
TAFRKS
TAF
KRKS 271720Z 2718/2818 26013G21KT P6SM SCT070
     FM272300 VRB10G18KT P6SM VCTS BKN070CB
     FM280300 VRB06KT P6SM SCT080=



000
FTUS45 KRIW 271720
TAFWRL
TAF
KWRL 271720Z 2718/2818 19007KT P6SM SCT100
     FM272200 34008KT P6SM SCT100
     FM280500 VRB06KT P6SM SCT120=



000
FTUS45 KRIW 271720
TAFCPR
TAF
KCPR 271720Z 2718/2818 33010KT P6SM SCT080 SCT120
     FM280200 VRB06KT P6SM SCT120
     FM280800 22008KT P6SM SCT150=



000
FTUS45 KRIW 271720
TAFLND
TAF
KLND 271720Z 2718/2818 VRB06KT P6SM FEW070 SCT120
     FM272100 33010G16KT P6SM VCTS SCT070CB BKN120
     FM280300 24007KT P6SM SCT120
     FM281400 VRB06KT P6SM SKC=



000
FTUS45 KRIW 271720
TAFWRL
TAF
KWRL 271720Z 2718/2818 19007KT P6SM SCT100
     FM272200 34008KT P6SM SCT100
     FM280500 VRB06KT P6SM SCT120=



000
FTUS45 KRIW 271720
TAFCOD
TAF
KCOD 271720Z 2718/2818 02008KT P6SM SCT080
     FM272100 VRB10G16KT P6SM VCTS SCT070CB BKN120
     FM280300 23012G18KT P6SM SCT120
     FM281200 VRB06KT P6SM FEW100 SCT200
      AMD LTD TO CLD VIS AND WIND=



000
FTUS45 KRIW 271720
TAFRIW
TAF
KRIW 271720Z 2718/2818 VRB06KT P6SM FEW080 SCT130
     FM272200 33010G16KT P6SM VCTS SCT070CB BKN120
     FM280300 32010KT P6SM SCT120
     FM281200 28006KT P6SM SKC=



000
FTUS45 KRIW 271720
TAFCOD
TAF
KCOD 271720Z 2718/2818 02008KT P6SM SCT080
     FM272100 VRB10G16KT P6SM VCTS SCT070CB BKN120
     FM280300 23012G18KT P6SM SCT120
     FM281200 VRB06KT P6SM FEW100 SCT200
      AMD LTD TO CLD VIS AND WIND=



000
FTUS45 KRIW 271535 AAB
TAFJAC
TAF AMD
KJAC 271535Z 2716/2812 VRB05KT 5SM BR FEW009 BKN015
      TEMPO 2716/2717 3SM BR OVC009
     FM271700 VRB05KT P6SM SCT020 SCT100
     FM272000 24012G18KT P6SM VCTS SCT060CB BKN110
     FM280300 VRB06KT P6SM SCT110
      AMD LTD TO CLD VIS AND WIND=



000
FTUS45 KRIW 271303 AAA
TAFRKS
TAF AMD
KRKS 271303Z 2713/2812 25007KT P6SM SCT015 BKN070
      TEMPO 2713/2715 BKN015
     FM271600 30013G21KT P6SM SCT070
     FM272300 VRB10G18KT P6SM VCTS BKN070CB
     FM280300 VRB06KT P6SM SCT080=



000
FTUS45 KRIW 271259 AAA
TAFJAC
TAF AMD
KJAC 271259Z 2713/2812 VRB05KT P6SM BCFG SCT005 OVC012
     FM271600 VRB05KT P6SM SCT025 SCT100
      TEMPO 2716/2717 BKN025
     FM272000 24012G18KT P6SM VCTS SCT060CB BKN110
     FM280300 VRB06KT P6SM SCT110
      AMD LTD TO CLD VIS AND WIND=



000
FTUS45 KRIW 271259 AAA
TAFJAC
TAF AMD
KJAC 271259Z 2713/2812 VRB05KT P6SM BCFG SCT005 OVC012
     FM271600 VRB05KT P6SM SCT025 SCT100
      TEMPO 2716/2717 BKN025
     FM272000 24012G18KT P6SM VCTS SCT060CB BKN110
     FM280300 VRB06KT P6SM SCT110
      AMD LTD TO CLD VIS AND WIND=



000
FTUS45 KRIW 271127
TAFBPI
TAF
KBPI 271127Z 2712/2812 34007KT P6SM VCFG SCT090
     FM271600 32006KT P6SM SCT090
     FM272100 34010G18KT P6SM VCTS SCT070CB BKN110
     FM280300 36008KT P6SM FEW080 SCT110=



000
FTUS45 KRIW 271127
TAFWRL
TAF
KWRL 271127Z 2712/2812 12007KT P6SM BKN120
     FM271400 19007KT P6SM SCT100
     FM272200 34008KT P6SM SCT100
     FM280500 VRB06KT P6SM SCT120=



000
FTUS45 KRIW 271127
TAFRKS
TAF
KRKS 271127Z 2712/2812 VRB06KT P6SM FEW015 BKN070
     FM271600 30013G21KT P6SM SCT070
     FM272300 VRB10G18KT P6SM VCTS BKN070CB
     FM280300 VRB06KT P6SM SCT080=



000
FTUS45 KRIW 271127
TAFJAC
TAF
KJAC 271127Z 2712/2812 VRB05KT 3/4SM BR VV002
     FM271600 VRB05KT P6SM BCFG BKN008
     FM271800 VRB05KT P6SM SCT025 SCT100
     FM272000 24012G18KT P6SM VCTS SCT060CB BKN110
     FM280300 VRB06KT P6SM SCT110
      AMD LTD TO CLD VIS AND WIND=



000
FTUS45 KRIW 271127
TAFRIW
TAF
KRIW 271127Z 2712/2812 VRB05KT P6SM BKN100
     FM271300 VRB06KT P6SM FEW080 SCT130
     FM272200 33010G16KT P6SM VCTS SCT070CB BKN120
     FM280300 32010KT P6SM SCT120=



000
FTUS45 KRIW 271127
TAFCOD
TAF
KCOD 271127Z 2712/2812 20007KT P6SM SCT110
     FM271600 02008KT P6SM SCT080
     FM272100 VRB10G16KT P6SM VCTS SCT070CB BKN120
     FM280300 23012G18KT P6SM SCT120
      AMD LTD TO CLD VIS AND WIND=



000
FTUS45 KRIW 271127
TAFLND
TAF
KLND 271127Z 2712/2812 VRB05KT P6SM BKN100
     FM271300 VRB06KT P6SM FEW070 SCT120
     FM272100 33010G16KT P6SM VCTS SCT070CB BKN120
     FM280300 24007KT P6SM SCT120=



000
FTUS45 KRIW 271127
TAFCPR
TAF
KCPR 271127Z 2712/2812 26010KT P6SM VCSH SCT060 OVC090
     FM271700 33010KT P6SM SCT080 SCT120
     FM280200 VRB06KT P6SM SCT120
     FM280800 22008KT P6SM SCT150=



000
FTUS45 KRIW 271127
TAFBPI
TAF
KBPI 271127Z 2712/2812 34007KT P6SM VCFG SCT090
     FM271600 32006KT P6SM SCT090
     FM272100 34010G18KT P6SM VCTS SCT070CB BKN110
     FM280300 36008KT P6SM FEW080 SCT110=



000
FTUS45 KRIW 271127
TAFWRL
TAF
KWRL 271127Z 2712/2812 12007KT P6SM BKN120
     FM271400 19007KT P6SM SCT100
     FM272200 34008KT P6SM SCT100
     FM280500 VRB06KT P6SM SCT120=



000
FTUS45 KRIW 271127
TAFCOD
TAF
KCOD 271127Z 2712/2812 20007KT P6SM SCT110
     FM271600 02008KT P6SM SCT080
     FM272100 VRB10G16KT P6SM VCTS SCT070CB BKN120
     FM280300 23012G18KT P6SM SCT120
      AMD LTD TO CLD VIS AND WIND=



000
FTUS45 KRIW 271127
TAFJAC
TAF
KJAC 271127Z 2712/2812 VRB05KT 3/4SM BR VV002
     FM271600 VRB05KT P6SM BCFG BKN008
     FM271800 VRB05KT P6SM SCT025 SCT100
     FM272000 24012G18KT P6SM VCTS SCT060CB BKN110
     FM280300 VRB06KT P6SM SCT110
      AMD LTD TO CLD VIS AND WIND=



000
FTUS45 KRIW 271127
TAFRKS
TAF
KRKS 271127Z 2712/2812 VRB06KT P6SM FEW015 BKN070
     FM271600 30013G21KT P6SM SCT070
     FM272300 VRB10G18KT P6SM VCTS BKN070CB
     FM280300 VRB06KT P6SM SCT080=



000
FTUS45 KRIW 271127
TAFCPR
TAF
KCPR 271127Z 2712/2812 26010KT P6SM VCSH SCT060 OVC090
     FM271700 33010KT P6SM SCT080 SCT120
     FM280200 VRB06KT P6SM SCT120
     FM280800 22008KT P6SM SCT150=



000
FTUS45 KRIW 271127
TAFRIW
TAF
KRIW 271127Z 2712/2812 VRB05KT P6SM BKN100
     FM271300 VRB06KT P6SM FEW080 SCT130
     FM272200 33010G16KT P6SM VCTS SCT070CB BKN120
     FM280300 32010KT P6SM SCT120=



000
FTUS45 KRIW 271127
TAFLND
TAF
KLND 271127Z 2712/2812 VRB05KT P6SM BKN100
     FM271300 VRB06KT P6SM FEW070 SCT120
     FM272100 33010G16KT P6SM VCTS SCT070CB BKN120
     FM280300 24007KT P6SM SCT120=



000
FTUS45 KRIW 270920 AAA
TAFJAC
TAF AMD
KJAC 270920Z 2709/2806 01005KT 1/2SM FG VV002
     FM271600 VRB05KT P6SM SCT060 SCT110
     FM272000 24012G18KT P6SM VCTS SCT060CB BKN110
     FM280300 VRB06KT P6SM SCT110
      AMD LTD TO CLD VIS AND WIND=



000
FTUS45 KRIW 270528
TAFWRL
TAF
KWRL 270528Z 2706/2806 VRB06KT P6SM -SHRA SCT060 OVC090
     FM271100 19007KT P6SM SCT110
     FM272200 34008KT P6SM SCT100
     FM280500 VRB06KT P6SM SCT120=



000
FTUS45 KRIW 270528
TAFRKS
TAF
KRKS 270528Z 2706/2806 VRB06KT P6SM VCSH FEW015 BKN070
     FM271600 30013G21KT P6SM SCT070
     FM272300 VRB10G18KT P6SM VCTS BKN070CB
     FM280300 VRB06KT P6SM SCT080=



000
FTUS45 KRIW 270528
TAFLND
TAF
KLND 270528Z 2706/2806 VRB06KT P6SM -SHRA BKN060
     FM271000 VRB06KT P6SM FEW070 SCT120
     FM272100 33010G16KT P6SM VCTS SCT070CB BKN120
     FM280300 24007KT P6SM SCT120=



000
FTUS45 KRIW 270528
TAFJAC
TAF
KJAC 270528Z 2706/2806 VRB05KT P6SM BCFG SCT008 SCT110
      TEMPO 2706/2710 1/2SM FG BKN003
     FM271500 VRB05KT P6SM SCT060 SCT110
     FM272000 24012G18KT P6SM VCTS SCT060CB BKN110
     FM280300 VRB06KT P6SM SCT110
      AMD LTD TO CLD VIS AND WIND=



000
FTUS45 KRIW 270528
TAFRIW
TAF
KRIW 270528Z 2706/2806 33011KT P6SM -SHRA SCT060 OVC090
     FM271100 VRB06KT P6SM FEW080 SCT130
     FM272200 33010G16KT P6SM VCTS SCT070CB BKN120
     FM280300 32010KT P6SM SCT120=



000
FTUS45 KRIW 270528
TAFCPR
TAF
KCPR 270528Z 2706/2806 29011KT P6SM -SHRA SCT060 OVC090
     FM271700 33010KT P6SM SCT080 SCT120
     FM280200 VRB06KT P6SM SCT120=



000
FTUS45 KRIW 270528
TAFBPI
TAF
KBPI 270528Z 2706/2806 36007KT P6SM SCT060 BKN090
     FM271000 34007KT P6SM VCFG SCT090
     FM271600 32006KT P6SM SCT090
     FM272100 34010G18KT P6SM VCTS SCT070CB BKN110
     FM280300 36008KT P6SM FEW080 SCT110=



000
FTUS45 KRIW 270528
TAFCOD
TAF
KCOD 270528Z 2706/2806 22011KT P6SM VCSH BKN080
     FM270900 20007KT P6SM SCT110
     FM271600 02008KT P6SM SCT080
     FM272100 VRB10G16KT P6SM VCTS SCT070CB BKN120
     FM280300 23012G18KT P6SM SCT120
      AMD LTD TO CLD VIS AND WIND=



000
FTUS45 KRIW 270528
TAFWRL
TAF
KWRL 270528Z 2706/2806 VRB06KT P6SM -SHRA SCT060 OVC090
     FM271100 19007KT P6SM SCT110
     FM272200 34008KT P6SM SCT100
     FM280500 VRB06KT P6SM SCT120=



000
FTUS45 KRIW 270528
TAFLND
TAF
KLND 270528Z 2706/2806 VRB06KT P6SM -SHRA BKN060
     FM271000 VRB06KT P6SM FEW070 SCT120
     FM272100 33010G16KT P6SM VCTS SCT070CB BKN120
     FM280300 24007KT P6SM SCT120=



000
FTUS45 KRIW 270528
TAFCOD
TAF
KCOD 270528Z 2706/2806 22011KT P6SM VCSH BKN080
     FM270900 20007KT P6SM SCT110
     FM271600 02008KT P6SM SCT080
     FM272100 VRB10G16KT P6SM VCTS SCT070CB BKN120
     FM280300 23012G18KT P6SM SCT120
      AMD LTD TO CLD VIS AND WIND=



000
FTUS45 KRIW 270528
TAFJAC
TAF
KJAC 270528Z 2706/2806 VRB05KT P6SM BCFG SCT008 SCT110
      TEMPO 2706/2710 1/2SM FG BKN003
     FM271500 VRB05KT P6SM SCT060 SCT110
     FM272000 24012G18KT P6SM VCTS SCT060CB BKN110
     FM280300 VRB06KT P6SM SCT110
      AMD LTD TO CLD VIS AND WIND=



000
FTUS45 KRIW 270528
TAFBPI
TAF
KBPI 270528Z 2706/2806 36007KT P6SM SCT060 BKN090
     FM271000 34007KT P6SM VCFG SCT090
     FM271600 32006KT P6SM SCT090
     FM272100 34010G18KT P6SM VCTS SCT070CB BKN110
     FM280300 36008KT P6SM FEW080 SCT110=



000
FTUS45 KRIW 270528
TAFRKS
TAF
KRKS 270528Z 2706/2806 VRB06KT P6SM VCSH FEW015 BKN070
     FM271600 30013G21KT P6SM SCT070
     FM272300 VRB10G18KT P6SM VCTS BKN070CB
     FM280300 VRB06KT P6SM SCT080=



000
FTUS45 KRIW 270528
TAFRIW
TAF
KRIW 270528Z 2706/2806 33011KT P6SM -SHRA SCT060 OVC090
     FM271100 VRB06KT P6SM FEW080 SCT130
     FM272200 33010G16KT P6SM VCTS SCT070CB BKN120
     FM280300 32010KT P6SM SCT120=



000
FTUS45 KRIW 270528
TAFCPR
TAF
KCPR 270528Z 2706/2806 29011KT P6SM -SHRA SCT060 OVC090
     FM271700 33010KT P6SM SCT080 SCT120
     FM280200 VRB06KT P6SM SCT120=



000
FTUS45 KRIW 262328
TAFCOD
TAF
KCOD 262328Z 2700/2724 23012G20KT P6SM VCSH SCT070 BKN100
     FM270500 VRB06KT P6SM VCSH BKN070
     FM271500 02008KT P6SM SCT110
     FM272100 VRB10G16KT P6SM VCTS SCT070CB BKN120
      AMD LTD TO CLD VIS AND WIND=



000
FTUS45 KRIW 262328
TAFLND
TAF
KLND 262328Z 2700/2724 29011KT P6SM -SHRA SCT040 BKN070
     FM270600 VRB06KT P6SM VCSH BKN070
     FM271500 VRB05KT P6SM FEW070 SCT110
     FM272100 VRB10G16KT P6SM VCTS SCT070CB BKN120=



000
FTUS45 KRIW 262328
TAFBPI
TAF
KBPI 262328Z 2700/2724 01012G18KT P6SM VCSH SCT050 BKN080
     FM270200 34009KT P6SM -SHRA BKN050
     FM270700 VRB05KT P6SM BKN080
     FM271300 VRB05KT P6SM SCT090
     FM272100 VRB10G18KT P6SM VCTS SCT070CB BKN110=



000
FTUS45 KRIW 262328
TAFWRL
TAF
KWRL 262328Z 2700/2724 31009KT P6SM VCSH SCT070 BKN100
     FM270400 VRB05KT P6SM VCSH BKN070
     FM271500 VRB05KT P6SM SCT110=



000
FTUS45 KRIW 262328
TAFRIW
TAF
KRIW 262328Z 2700/2724 30018G26KT P6SM VCSH SCT070 BKN100
     FM270300 30011KT P6SM VCSH BKN070
     FM271600 VRB06KT P6SM FEW080 SCT130
     FM272200 VRB10G16KT P6SM VCTS SCT070CB BKN120=



000
FTUS45 KRIW 262328
TAFRKS
TAF
KRKS 262328Z 2700/2724 VRB06G16KT P6SM -SHRA VCTS BKN060CB
     FM270400 VRB06KT P6SM -SHRA FEW015 BKN050
     FM271600 29012G18KT P6SM SCT060 BKN120=



000
FTUS45 KRIW 262328
TAFJAC
TAF
KJAC 262328Z 2700/2724 VRB06KT P6SM -SHRA FEW012 BKN050
     FM270700 VRB05KT P6SM VCFG SCT008 BKN080
     FM271500 VRB05KT P6SM SCT060 SCT110
     FM272000 21012G18KT P6SM VCTS SCT060CB BKN110
      AMD LTD TO CLD VIS AND WIND=



000
FTUS45 KRIW 262328
TAFWRL
TAF
KWRL 262328Z 2700/2724 31009KT P6SM VCSH SCT070 BKN100
     FM270400 VRB05KT P6SM VCSH BKN070
     FM271500 VRB05KT P6SM SCT110=



000
FTUS45 KRIW 262328
TAFCPR
TAF
KCPR 262328Z 2700/2724 35012G18KT P6SM VCSH SCT070 BKN100
     FM270200 33011G17KT P6SM VCTS SCT060CB BKN090
     FM270500 29011KT P6SM VCSH BKN070
     FM271900 31010KT P6SM SCT080 SCT120=



000
FTUS45 KRIW 262328
TAFRIW
TAF
KRIW 262328Z 2700/2724 30018G26KT P6SM VCSH SCT070 BKN100
     FM270300 30011KT P6SM VCSH BKN070
     FM271600 VRB06KT P6SM FEW080 SCT130
     FM272200 VRB10G16KT P6SM VCTS SCT070CB BKN120=



000
FTUS45 KRIW 262328
TAFBPI
TAF
KBPI 262328Z 2700/2724 01012G18KT P6SM VCSH SCT050 BKN080
     FM270200 34009KT P6SM -SHRA BKN050
     FM270700 VRB05KT P6SM BKN080
     FM271300 VRB05KT P6SM SCT090
     FM272100 VRB10G18KT P6SM VCTS SCT070CB BKN110=



000
FTUS45 KRIW 262328
TAFJAC
TAF
KJAC 262328Z 2700/2724 VRB06KT P6SM -SHRA FEW012 BKN050
     FM270700 VRB05KT P6SM VCFG SCT008 BKN080
     FM271500 VRB05KT P6SM SCT060 SCT110
     FM272000 21012G18KT P6SM VCTS SCT060CB BKN110
      AMD LTD TO CLD VIS AND WIND=



000
FTUS45 KRIW 262328
TAFCOD
TAF
KCOD 262328Z 2700/2724 23012G20KT P6SM VCSH SCT070 BKN100
     FM270500 VRB06KT P6SM VCSH BKN070
     FM271500 02008KT P6SM SCT110
     FM272100 VRB10G16KT P6SM VCTS SCT070CB BKN120
      AMD LTD TO CLD VIS AND WIND=



000
FTUS45 KRIW 262328
TAFRKS
TAF
KRKS 262328Z 2700/2724 VRB06G16KT P6SM -SHRA VCTS BKN060CB
     FM270400 VRB06KT P6SM -SHRA FEW015 BKN050
     FM271600 29012G18KT P6SM SCT060 BKN120=



000
FTUS45 KRIW 262328
TAFLND
TAF
KLND 262328Z 2700/2724 29011KT P6SM -SHRA SCT040 BKN070
     FM270600 VRB06KT P6SM VCSH BKN070
     FM271500 VRB05KT P6SM FEW070 SCT110
     FM272100 VRB10G16KT P6SM VCTS SCT070CB BKN120=



000
FTUS45 KRIW 262328
TAFCPR
TAF
KCPR 262328Z 2700/2724 35012G18KT P6SM VCSH SCT070 BKN100
     FM270200 33011G17KT P6SM VCTS SCT060CB BKN090
     FM270500 29011KT P6SM VCSH BKN070
     FM271900 31010KT P6SM SCT080 SCT120=



000
FTUS45 KRIW 262112 AAA
TAFJAC
TAF AMD
KJAC 262112Z 2621/2718 20012G18KT P6SM -SHRA VCTS SCT060CB BKN090
      TEMPO 2621/2623 4SM SHRA FEW012 BKN040
     FM270300 VRB06KT P6SM -SHRA BKN050
     FM270800 VRB05KT P6SM VCSH BKN050
     FM271500 VRB05KT P6SM SCT060 SCT110
      AMD LTD TO CLD VIS AND WIND=



000
FTUS45 KRIW 262112 AAA
TAFJAC
TAF AMD
KJAC 262112Z 2621/2718 20012G18KT P6SM -SHRA VCTS SCT060CB BKN090
      TEMPO 2621/2623 4SM SHRA FEW012 BKN040
     FM270300 VRB06KT P6SM -SHRA BKN050
     FM270800 VRB05KT P6SM VCSH BKN050
     FM271500 VRB05KT P6SM SCT060 SCT110
      AMD LTD TO CLD VIS AND WIND=



000
FTUS45 KRIW 262024 AAA
TAFRKS
TAF AMD
KRKS 262024Z 2620/2718 25012G20KT P6SM VCTS SCT060CB BKN090
     FM270000 VRB06G16KT P6SM -SHRA VCTS BKN060CB
     FM270500 VRB06KT P6SM -SHRA BKN050
     FM271600 29012G18KT P6SM SCT060 BKN120=



000
FTUS45 KRIW 262023 AAA
TAFCOD
TAF AMD
KCOD 262023Z 2620/2718 24014G22KT P6SM VCTS SCT080CB BKN110
     FM270500 VRB06KT P6SM VCSH BKN070
     FM271500 02008KT P6SM SCT110
      AMD LTD TO CLD VIS AND WIND=



000
FTUS45 KRIW 261932 AAA
TAFCPR
TAF AMD
KCPR 261932Z 2620/2718 22014G22KT P6SM VCSH BKN100
     FM262300 26008KT P6SM VCTS BKN080CB
     FM270400 29011KT P6SM VCSH BKN070=



000
FTUS45 KRIW 261932 AAA
TAFCPR
TAF AMD
KCPR 261932Z 2620/2718 22014G22KT P6SM VCSH BKN100
     FM262300 26008KT P6SM VCTS BKN080CB
     FM270400 29011KT P6SM VCSH BKN070=



000
FTUS45 KRIW 261726 AAA
TAFRIW
TAF AMD
KRIW 261726Z 2617/2718 30014G22KT P6SM BKN120
     FM262100 30014G22KT P6SM VCSH SCT080 BKN110
     FM270300 30011KT P6SM VCSH BKN080
     FM271600 VRB06KT P6SM FEW080 SCT130=



000
FTUS45 KRIW 261726 AAA
TAFRIW
TAF AMD
KRIW 261726Z 2617/2718 30014G22KT P6SM BKN120
     FM262100 30014G22KT P6SM VCSH SCT080 BKN110
     FM270300 30011KT P6SM VCSH BKN080
     FM271600 VRB06KT P6SM FEW080 SCT130=



000
FTUS45 KRIW 261720
TAFCPR
TAF
KCPR 261720Z 2618/2718 22013G19KT P6SM SCT110 BKN250
     FM261900 22010KT P6SM VCSH BKN100
     FM262300 26008KT P6SM VCTS BKN080CB
     FM270400 29011KT P6SM VCSH BKN070=



000
FTUS45 KRIW 261720
TAFWRL
TAF
KWRL 261720Z 2618/2718 VRB06KT P6SM SCT110 BKN200
     FM262100 35008KT P6SM BKN120
     FM270000 VRB06KT P6SM VCTS SCT070CB BKN100
     FM270500 VRB05KT P6SM VCSH BKN070
     FM271600 VRB05KT P6SM SCT110=



000
FTUS45 KRIW 261720
TAFLND
TAF
KLND 261720Z 2618/2718 VRB06KT P6SM BKN110
     FM262200 23012G18KT P6SM VCSH SCT060 BKN090
     FM270500 VRB06KT P6SM VCSH BKN070
     FM271500 VRB05KT P6SM FEW070 SCT110=



000
FTUS45 KRIW 261720
TAFBPI
TAF
KBPI 261720Z 2618/2718 VRB10G18KT P6SM -SHRA VCTS SCT060CB BKN100
     FM270300 34009KT P6SM VCSH BKN060
     FM271300 VRB05KT P6SM SCT090=



000
FTUS45 KRIW 261720
TAFCOD
TAF
KCOD 261720Z 2618/2718 25011KT P6SM VCSH SCT080 BKN110
     FM262300 24010G18KT P6SM VCTS SCT080CB BKN110
     FM270500 VRB06KT P6SM VCSH BKN070
     FM271500 02008KT P6SM SCT110
      AMD LTD TO CLD VIS AND WIND=



000
FTUS45 KRIW 261720
TAFRKS
TAF
KRKS 261720Z 2618/2718 21012G20KT P6SM VCTS SCT060CB BKN090
     FM270000 VRB06G16KT P6SM -SHRA VCTS BKN060CB
     FM270500 VRB06KT P6SM -SHRA BKN050
     FM271600 29012G18KT P6SM SCT060 BKN120=



000
FTUS45 KRIW 261720
TAFRIW
TAF
KRIW 261720Z 2618/2718 20008KT P6SM BKN120
     FM262100 30014G22KT P6SM VCSH SCT080 BKN110
     FM270300 30011KT P6SM VCSH BKN080
     FM271600 VRB06KT P6SM FEW080 SCT130=



000
FTUS45 KRIW 261720
TAFJAC
TAF
KJAC 261720Z 2618/2718 20012G18KT P6SM -SHRA VCTS SCT060CB BKN090
     FM270300 VRB06KT P6SM -SHRA BKN050
     FM270800 VRB05KT P6SM VCSH BKN050
     FM271500 VRB05KT P6SM SCT060 SCT110
      AMD LTD TO CLD VIS AND WIND=



000
FTUS45 KRIW 261720
TAFJAC
TAF
KJAC 261720Z 2618/2718 20012G18KT P6SM -SHRA VCTS SCT060CB BKN090
     FM270300 VRB06KT P6SM -SHRA BKN050
     FM270800 VRB05KT P6SM VCSH BKN050
     FM271500 VRB05KT P6SM SCT060 SCT110
      AMD LTD TO CLD VIS AND WIND=



000
FTUS45 KRIW 261720
TAFBPI
TAF
KBPI 261720Z 2618/2718 VRB10G18KT P6SM -SHRA VCTS SCT060CB BKN100
     FM270300 34009KT P6SM VCSH BKN060
     FM271300 VRB05KT P6SM SCT090=



000
FTUS45 KRIW 261720
TAFRIW
TAF
KRIW 261720Z 2618/2718 20008KT P6SM BKN120
     FM262100 30014G22KT P6SM VCSH SCT080 BKN110
     FM270300 30011KT P6SM VCSH BKN080
     FM271600 VRB06KT P6SM FEW080 SCT130=



000
FTUS45 KRIW 261720
TAFCPR
TAF
KCPR 261720Z 2618/2718 22013G19KT P6SM SCT110 BKN250
     FM261900 22010KT P6SM VCSH BKN100
     FM262300 26008KT P6SM VCTS BKN080CB
     FM270400 29011KT P6SM VCSH BKN070=



000
FTUS45 KRIW 261720
TAFWRL
TAF
KWRL 261720Z 2618/2718 VRB06KT P6SM SCT110 BKN200
     FM262100 35008KT P6SM BKN120
     FM270000 VRB06KT P6SM VCTS SCT070CB BKN100
     FM270500 VRB05KT P6SM VCSH BKN070
     FM271600 VRB05KT P6SM SCT110=



000
FTUS45 KRIW 261720
TAFRKS
TAF
KRKS 261720Z 2618/2718 21012G20KT P6SM VCTS SCT060CB BKN090
     FM270000 VRB06G16KT P6SM -SHRA VCTS BKN060CB
     FM270500 VRB06KT P6SM -SHRA BKN050
     FM271600 29012G18KT P6SM SCT060 BKN120=



000
FTUS45 KRIW 261720
TAFLND
TAF
KLND 261720Z 2618/2718 VRB06KT P6SM BKN110
     FM262200 23012G18KT P6SM VCSH SCT060 BKN090
     FM270500 VRB06KT P6SM VCSH BKN070
     FM271500 VRB05KT P6SM FEW070 SCT110=



000
FTUS45 KRIW 261720
TAFCOD
TAF
KCOD 261720Z 2618/2718 25011KT P6SM VCSH SCT080 BKN110
     FM262300 24010G18KT P6SM VCTS SCT080CB BKN110
     FM270500 VRB06KT P6SM VCSH BKN070
     FM271500 02008KT P6SM SCT110
      AMD LTD TO CLD VIS AND WIND=



000
FTUS45 KRIW 261631 AAA
TAFCPR
TAF AMD
KCPR 261631Z 2617/2712 22013G19KT P6SM SCT110 BKN250
     FM261900 22010KT P6SM VCSH BKN100
     FM262300 26008KT P6SM VCTS BKN080CB
     FM270400 29006KT P6SM VCSH BKN070=



000
FTUS45 KRIW 261631 AAA
TAFCPR
TAF AMD
KCPR 261631Z 2617/2712 22013G19KT P6SM SCT110 BKN250
     FM261900 22010KT P6SM VCSH BKN100
     FM262300 26008KT P6SM VCTS BKN080CB
     FM270400 29006KT P6SM VCSH BKN070=



000
FTUS45 KRIW 261532 AAA
TAFBPI
TAF AMD
KBPI 261532Z 2616/2712 VRB15G25KT P6SM -SHRA SCT050 BKN090
     FM261630 VRB05KT P6SM VCSH SCT060 BKN100
     FM261900 VRB10G18KT P6SM -SHRA VCTS SCT060CB BKN100
     FM270300 VRB06KT P6SM VCSH BKN060=



000
FTUS45 KRIW 261122
TAFLND
TAF
KLND 261122Z 2612/2712 VRB06KT P6SM SCT110
     FM261700 VRB06KT P6SM BKN110
     FM262200 23012G18KT P6SM VCSH SCT060 BKN090
     FM270500 VRB06KT P6SM VCSH BKN070=



000
FTUS45 KRIW 261122
TAFCPR
TAF
KCPR 261122Z 2612/2712 23005KT P6SM SCT110
     FM261900 22010KT P6SM VCSH BKN100
     FM262300 26008KT P6SM VCTS BKN080CB
     FM270400 29006KT P6SM VCSH BKN070=



000
FTUS45 KRIW 261122
TAFBPI
TAF
KBPI 261122Z 2612/2712 VRB05KT P6SM VCSH SCT060 BKN100
     FM261900 VRB10G18KT P6SM -SHRA VCTS SCT060CB BKN100
     FM270300 VRB06KT P6SM VCSH BKN060=



000
FTUS45 KRIW 261122
TAFJAC
TAF
KJAC 261122Z 2612/2712 VRB04KT P6SM VCSH BKN100
     FM261900 20012G18KT P6SM -SHRA VCTS SCT060CB BKN090
     FM270300 VRB06KT P6SM -SHRA BKN050
     FM270800 VRB05KT P6SM VCSH BKN050
      AMD LTD TO CLD VIS AND WIND=



000
FTUS45 KRIW 261122
TAFWRL
TAF
KWRL 261122Z 2612/2712 VRB06KT P6SM SCT110
     FM262100 35008KT P6SM BKN120
     FM270000 VRB06KT P6SM VCTS SCT070CB BKN100
     FM270500 VRB05KT P6SM VCSH BKN070=



000
FTUS45 KRIW 261122
TAFRKS
TAF
KRKS 261122Z 2612/2712 15008KT P6SM SCT100
     FM261400 19007KT P6SM VCSH SCT080 BKN100
     FM261800 18012G20KT P6SM VCTS SCT060CB BKN090
     FM270000 VRB06G16KT P6SM -SHRA VCTS BKN060CB
     FM270500 VRB06KT P6SM -SHRA BKN050=



000
FTUS45 KRIW 261122
TAFRIW
TAF
KRIW 261122Z 2612/2712 31006KT P6SM SCT110
     FM261600 20008KT P6SM BKN120
     FM262100 30014G22KT P6SM VCSH SCT080 BKN110
     FM270300 30011KT P6SM VCSH BKN080=



000
FTUS45 KRIW 261122
TAFCOD
TAF
KCOD 261122Z 2612/2712 21008KT P6SM SCT100
     FM261700 12007KT P6SM BKN110
     FM262300 23010G18KT P6SM VCTS SCT080CB BKN110
     FM270500 VRB06KT P6SM VCSH BKN070
      AMD LTD TO CLD VIS AND WIND=



000
FTUS45 KRIW 261122
TAFLND
TAF
KLND 261122Z 2612/2712 VRB06KT P6SM SCT110
     FM261700 VRB06KT P6SM BKN110
     FM262200 23012G18KT P6SM VCSH SCT060 BKN090
     FM270500 VRB06KT P6SM VCSH BKN070=



000
FTUS45 KRIW 261122
TAFWRL
TAF
KWRL 261122Z 2612/2712 VRB06KT P6SM SCT110
     FM262100 35008KT P6SM BKN120
     FM270000 VRB06KT P6SM VCTS SCT070CB BKN100
     FM270500 VRB05KT P6SM VCSH BKN070=



000
FTUS45 KRIW 261122
TAFJAC
TAF
KJAC 261122Z 2612/2712 VRB04KT P6SM VCSH BKN100
     FM261900 20012G18KT P6SM -SHRA VCTS SCT060CB BKN090
     FM270300 VRB06KT P6SM -SHRA BKN050
     FM270800 VRB05KT P6SM VCSH BKN050
      AMD LTD TO CLD VIS AND WIND=



000
FTUS45 KRIW 261122
TAFBPI
TAF
KBPI 261122Z 2612/2712 VRB05KT P6SM VCSH SCT060 BKN100
     FM261900 VRB10G18KT P6SM -SHRA VCTS SCT060CB BKN100
     FM270300 VRB06KT P6SM VCSH BKN060=



000
FTUS45 KRIW 261122
TAFCPR
TAF
KCPR 261122Z 2612/2712 23005KT P6SM SCT110
     FM261900 22010KT P6SM VCSH BKN100
     FM262300 26008KT P6SM VCTS BKN080CB
     FM270400 29006KT P6SM VCSH BKN070=



000
FTUS45 KRIW 261122
TAFCOD
TAF
KCOD 261122Z 2612/2712 21008KT P6SM SCT100
     FM261700 12007KT P6SM BKN110
     FM262300 23010G18KT P6SM VCTS SCT080CB BKN110
     FM270500 VRB06KT P6SM VCSH BKN070
      AMD LTD TO CLD VIS AND WIND=



000
FTUS45 KRIW 261122
TAFRKS
TAF
KRKS 261122Z 2612/2712 15008KT P6SM SCT100
     FM261400 19007KT P6SM VCSH SCT080 BKN100
     FM261800 18012G20KT P6SM VCTS SCT060CB BKN090
     FM270000 VRB06G16KT P6SM -SHRA VCTS BKN060CB
     FM270500 VRB06KT P6SM -SHRA BKN050=



000
FTUS45 KRIW 261122
TAFRIW
TAF
KRIW 261122Z 2612/2712 31006KT P6SM SCT110
     FM261600 20008KT P6SM BKN120
     FM262100 30014G22KT P6SM VCSH SCT080 BKN110
     FM270300 30011KT P6SM VCSH BKN080=



000
FTUS45 KRIW 260532
TAFLND
TAF
KLND 260532Z 2606/2706 VRB06KT P6SM SCT110
     FM261700 VRB06KT P6SM BKN110
     FM262200 23012G18KT P6SM VCSH SCT060 BKN090
     FM270500 VRB06KT P6SM VCSH BKN070=



000
FTUS45 KRIW 260532
TAFRKS
TAF
KRKS 260532Z 2606/2706 25008KT P6SM SCT100
     FM261400 19007KT P6SM VCSH SCT080 BKN100
     FM261800 18012G20KT P6SM VCTS SCT060CB BKN090
     FM270000 VRB06G16KT P6SM -SHRA VCTS BKN060CB
     FM270500 VRB06KT P6SM -SHRA BKN050=



000
FTUS45 KRIW 260532
TAFWRL
TAF
KWRL 260532Z 2606/2706 VRB06KT P6SM SCT110
     FM262100 35008KT P6SM BKN120
     FM270000 VRB06KT P6SM VCTS SCT070CB BKN100
     FM270500 VRB05KT P6SM VCSH BKN070=



000
FTUS45 KRIW 260532
TAFRIW
TAF
KRIW 260532Z 2606/2706 01006KT P6SM SCT110
     FM261600 20008KT P6SM BKN120
     FM262100 30014G22KT P6SM VCSH SCT080 BKN110
     FM270300 30011KT P6SM VCSH BKN080=



000
FTUS45 KRIW 260532
TAFJAC
TAF
KJAC 260532Z 2606/2706 36005KT P6SM SCT100
     FM261500 VRB04KT P6SM VCSH BKN100
     FM262100 20012G18KT P6SM -SHRA VCTS SCT060CB BKN090
     FM270300 VRB06KT P6SM -SHRA BKN050
      AMD LTD TO CLD VIS AND WIND=



000
FTUS45 KRIW 260532
TAFBPI
TAF
KBPI 260532Z 2606/2706 VRB05KT P6SM SCT110
     FM261500 VRB05KT P6SM VCSH SCT060 BKN100
     FM262100 VRB10G18KT P6SM VCTS SCT060CB BKN100
     FM270300 VRB06KT P6SM VCSH BKN060=



000
FTUS45 KRIW 260532
TAFCPR
TAF
KCPR 260532Z 2606/2706 23005KT P6SM SCT110
     FM261900 22010KT P6SM VCSH BKN100
     FM262300 26008KT P6SM VCTS BKN080CB
     FM270400 29006KT P6SM VCSH BKN070=



000
FTUS45 KRIW 260532
TAFCOD
TAF
KCOD 260532Z 2606/2706 21008KT P6SM SCT100
     FM261700 12007KT P6SM BKN110
     FM262300 23010G18KT P6SM VCTS SCT080CB BKN110
     FM270500 VRB06KT P6SM VCSH BKN070
      AMD LTD TO CLD VIS AND WIND=



000
FTUS45 KRIW 252325
TAFJAC
TAF
KJAC 252325Z 2600/2624 24008G18KT P6SM VCTS BKN090CB
     FM260200 VRB04KT P6SM SCT100
     FM261200 VRB04KT P6SM VCSH BKN100
     FM262100 20012G18KT P6SM -SHRA VCTS SCT060CB BKN090
      AMD LTD TO CLD VIS AND WIND=



000
FTUS45 KRIW 252325
TAFRKS
TAF
KRKS 252325Z 2600/2624 24010G20KT P6SM VCTS BKN090CB
     FM260200 20007KT P6SM SCT100
     FM261400 19007KT P6SM VCSH SCT080 BKN100
     FM261800 18012G20KT P6SM VCTS SCT060CB BKN090=



000
FTUS45 KRIW 252325
TAFRIW
TAF
KRIW 252325Z 2600/2624 36010KT P6SM SCT100 SCT120
     FM260300 31006KT P6SM SCT120
     FM261600 20008KT P6SM BKN120
     FM262100 30014G22KT P6SM VCSH SCT080 BKN120=



000
FTUS45 KRIW 252325
TAFCPR
TAF
KCPR 252325Z 2600/2624 03006KT P6SM SCT100
     FM260100 04006KT P6SM VCSH BKN110
     FM260400 VRB06KT P6SM SCT120
     FM261700 22010KT P6SM VCSH BKN120=



000
FTUS45 KRIW 252325
TAFWRL
TAF
KWRL 252325Z 2600/2624 VRB12G18KT P6SM VCSH SCT090 BKN110
     FM260300 16006KT P6SM FEW120
     FM262100 35008KT P6SM BKN120=



000
FTUS45 KRIW 252325
TAFCOD
TAF
KCOD 252325Z 2600/2624 14006KT P6SM VCTS SCT080CB BKN100
     FM260300 21005KT P6SM SCT110
     FM261700 12007KT P6SM BKN110
     FM262300 23010G18KT P6SM VCTS SCT080CB BKN110
      AMD LTD TO CLD VIS AND WIND=



000
FTUS45 KRIW 252325
TAFLND
TAF
KLND 252325Z 2600/2624 VRB10G20KT P6SM VCSH SCT100 BKN120
     FM260300 25008KT P6SM SCT120
     FM261600 VRB05KT P6SM BKN110
     FM262200 23012G18KT P6SM VCSH SCT060 BKN090=



000
FTUS45 KRIW 252325
TAFJAC
TAF
KJAC 252325Z 2600/2624 24008G18KT P6SM VCTS BKN090CB
     FM260200 VRB04KT P6SM SCT100
     FM261200 VRB04KT P6SM VCSH BKN100
     FM262100 20012G18KT P6SM -SHRA VCTS SCT060CB BKN090
      AMD LTD TO CLD VIS AND WIND=



000
FTUS45 KRIW 252325
TAFLND
TAF
KLND 252325Z 2600/2624 VRB10G20KT P6SM VCSH SCT100 BKN120
     FM260300 25008KT P6SM SCT120
     FM261600 VRB05KT P6SM BKN110
     FM262200 23012G18KT P6SM VCSH SCT060 BKN090=



000
FTUS45 KRIW 252325
TAFCPR
TAF
KCPR 252325Z 2600/2624 03006KT P6SM SCT100
     FM260100 04006KT P6SM VCSH BKN110
     FM260400 VRB06KT P6SM SCT120
     FM261700 22010KT P6SM VCSH BKN120=



000
FTUS45 KRIW 252325
TAFCOD
TAF
KCOD 252325Z 2600/2624 14006KT P6SM VCTS SCT080CB BKN100
     FM260300 21005KT P6SM SCT110
     FM261700 12007KT P6SM BKN110
     FM262300 23010G18KT P6SM VCTS SCT080CB BKN110
      AMD LTD TO CLD VIS AND WIND=



000
FTUS45 KRIW 252325
TAFBPI
TAF
KBPI 252325Z 2600/2624 VRB10G20KT P6SM VCTS BKN090CB
     FM260200 VRB06KT P6SM SCT100
     FM261500 VRB05KT P6SM VCSH SCT060 BKN100
     FM262100 VRB10G18KT P6SM VCTS SCT060CB BKN100=



000
FTUS45 KRIW 252325
TAFRKS
TAF
KRKS 252325Z 2600/2624 24010G20KT P6SM VCTS BKN090CB
     FM260200 20007KT P6SM SCT100
     FM261400 19007KT P6SM VCSH SCT080 BKN100
     FM261800 18012G20KT P6SM VCTS SCT060CB BKN090=



000
FTUS45 KRIW 252325
TAFRIW
TAF
KRIW 252325Z 2600/2624 36010KT P6SM SCT100 SCT120
     FM260300 31006KT P6SM SCT120
     FM261600 20008KT P6SM BKN120
     FM262100 30014G22KT P6SM VCSH SCT080 BKN120=



000
FTUS45 KRIW 252325
TAFWRL
TAF
KWRL 252325Z 2600/2624 VRB12G18KT P6SM VCSH SCT090 BKN110
     FM260300 16006KT P6SM FEW120
     FM262100 35008KT P6SM BKN120=



000
FTUS45 KRIW 252325
TAFBPI
TAF
KBPI 252325Z 2600/2624 VRB10G20KT P6SM VCTS BKN090CB
     FM260200 VRB06KT P6SM SCT100
     FM261500 VRB05KT P6SM VCSH SCT060 BKN100
     FM262100 VRB10G18KT P6SM VCTS SCT060CB BKN100=



000
FTUS45 KRIW 252135 AAB
TAFWRL
TAF AMD
KWRL 252135Z 2522/2618 VRB12G18KT P6SM VCTS SCT090CB BKN120
      TEMPO 2522/2523 VRB25G35KT -SHRA BKN090
     FM260300 16006KT P6SM FEW120=



000
FTUS45 KRIW 252135 AAB
TAFWRL
TAF AMD
KWRL 252135Z 2522/2618 VRB12G18KT P6SM VCTS SCT090CB BKN120
      TEMPO 2522/2523 VRB25G35KT -SHRA BKN090
     FM260300 16006KT P6SM FEW120=



000
FTUS45 KRIW 252108 AAA
TAFWRL
TAF AMD
KWRL 252108Z 2521/2618 VRB05KT P6SM SCT100 BKN250
     FM252200 VRB12G18KT P6SM VCTS SCT090CB BKN120
     FM260300 16006KT P6SM FEW120=



000
FTUS45 KRIW 252108 AAA
TAFWRL
TAF AMD
KWRL 252108Z 2521/2618 VRB05KT P6SM SCT100 BKN250
     FM252200 VRB12G18KT P6SM VCTS SCT090CB BKN120
     FM260300 16006KT P6SM FEW120=



000
FTUS45 KRIW 251724
TAFWRL
TAF
KWRL 251724Z 2518/2618 VRB05KT P6SM SCT200
     FM252100 VRB05KT P6SM SCT100
     FM260300 16006KT P6SM FEW120=



000
FTUS45 KRIW 251724
TAFRKS
TAF
KRKS 251724Z 2518/2618 15006KT P6SM SKC
     FM251900 24008KT P6SM SCT090
     FM252200 24010G20KT P6SM VCTS BKN090CB
     FM260200 20007KT P6SM SCT100
     FM261400 19007KT P6SM VCSH SCT080 BKN100=



000
FTUS45 KRIW 251724
TAFLND
TAF
KLND 251724Z 2518/2618 VRB06KT P6SM SKC
     FM251900 VRB06KT P6SM SCT100
     FM252300 VRB10G20KT P6SM VCSH SCT100 BKN120
     FM260300 25008KT P6SM SCT120
     FM261600 VRB05KT P6SM BKN110=



000
FTUS45 KRIW 251724
TAFBPI
TAF
KBPI 251724Z 2518/2618 VRB05KT P6SM SKC
     FM251900 17008KT P6SM SCT090
     FM252300 VRB10G20KT P6SM VCTS BKN090CB
     FM260200 VRB06KT P6SM SCT100
     FM261500 VRB05KT P6SM VCSH SCT060 BKN100=



000
FTUS45 KRIW 251724
TAFCPR
TAF
KCPR 251724Z 2518/2618 24011KT P6SM FEW150
     FM252000 28007KT P6SM FEW100 SCT150
     FM252300 02006KT P6SM SCT100
     FM260100 04006KT P6SM VCSH BKN110
     FM260400 VRB06KT P6SM SCT120
     FM261700 22010KT P6SM VCSH BKN120=



000
FTUS45 KRIW 251724
TAFRIW
TAF
KRIW 251724Z 2518/2618 VRB05KT P6SM SKC
     FM251900 VRB06KT P6SM SCT100
     FM260000 VRB10G20KT P6SM VCSH SCT100 BKN120
     FM260300 31006KT P6SM SCT120
     FM261600 20008KT P6SM BKN120=



000
FTUS45 KRIW 251724
TAFCPR
TAF
KCPR 251724Z 2518/2618 24011KT P6SM FEW150
     FM252000 28007KT P6SM FEW100 SCT150
     FM252300 02006KT P6SM SCT100
     FM260100 04006KT P6SM VCSH BKN110
     FM260400 VRB06KT P6SM SCT120
     FM261700 22010KT P6SM VCSH BKN120=



000
FTUS45 KRIW 251724
TAFRIW
TAF
KRIW 251724Z 2518/2618 VRB05KT P6SM SKC
     FM251900 VRB06KT P6SM SCT100
     FM260000 VRB10G20KT P6SM VCSH SCT100 BKN120
     FM260300 31006KT P6SM SCT120
     FM261600 20008KT P6SM BKN120=



000
FTUS45 KRIW 251724
TAFCOD
TAF
KCOD 251724Z 2518/2618 12008KT P6SM FEW100 SCT200
     FM252100 VRB12G20KT P6SM VCTS FEW080CB BKN100
     FM260300 21005KT P6SM SCT110
     FM261700 12007KT P6SM BKN110
      AMD LTD TO CLD VIS AND WIND=



000
FTUS45 KRIW 251724
TAFWRL
TAF
KWRL 251724Z 2518/2618 VRB05KT P6SM SCT200
     FM252100 VRB05KT P6SM SCT100
     FM260300 16006KT P6SM FEW120=



000
FTUS45 KRIW 251724
TAFRKS
TAF
KRKS 251724Z 2518/2618 15006KT P6SM SKC
     FM251900 24008KT P6SM SCT090
     FM252200 24010G20KT P6SM VCTS BKN090CB
     FM260200 20007KT P6SM SCT100
     FM261400 19007KT P6SM VCSH SCT080 BKN100=



000
FTUS45 KRIW 251724
TAFJAC
TAF
KJAC 251724Z 2518/2618 20006KT P6SM SCT090
     FM252100 21009KT P6SM VCTS BKN090CB
     FM260200 VRB04KT P6SM SCT100
     FM261200 VRB04KT P6SM VCSH BKN100
      AMD LTD TO CLD VIS AND WIND=



000
FTUS45 KRIW 251724
TAFLND
TAF
KLND 251724Z 2518/2618 VRB06KT P6SM SKC
     FM251900 VRB06KT P6SM SCT100
     FM252300 VRB10G20KT P6SM VCSH SCT100 BKN120
     FM260300 25008KT P6SM SCT120
     FM261600 VRB05KT P6SM BKN110=



000
FTUS45 KRIW 251724
TAFBPI
TAF
KBPI 251724Z 2518/2618 VRB05KT P6SM SKC
     FM251900 17008KT P6SM SCT090
     FM252300 VRB10G20KT P6SM VCTS BKN090CB
     FM260200 VRB06KT P6SM SCT100
     FM261500 VRB05KT P6SM VCSH SCT060 BKN100=



000
FTUS45 KRIW 251724
TAFCOD
TAF
KCOD 251724Z 2518/2618 12008KT P6SM FEW100 SCT200
     FM252100 VRB12G20KT P6SM VCTS FEW080CB BKN100
     FM260300 21005KT P6SM SCT110
     FM261700 12007KT P6SM BKN110
      AMD LTD TO CLD VIS AND WIND=



000
FTUS45 KRIW 251724
TAFJAC
TAF
KJAC 251724Z 2518/2618 20006KT P6SM SCT090
     FM252100 21009KT P6SM VCTS BKN090CB
     FM260200 VRB04KT P6SM SCT100
     FM261200 VRB04KT P6SM VCSH BKN100
      AMD LTD TO CLD VIS AND WIND=



000
FTUS45 KRIW 251638 AAA
TAFCPR
TAF AMD
KCPR 251638Z 2517/2612 23012G18KT P6SM SKC
     FM251800 29007KT P6SM FEW100
     FM252300 03006KT P6SM SCT100
     FM260100 04006KT P6SM VCSH BKN110
     FM260400 VRB06KT P6SM SCT120=



000
FTUS45 KRIW 251122
TAFCPR
TAF
KCPR 251122Z 2512/2612 24006KT P6SM SKC
     FM251800 29007KT P6SM FEW100
     FM252300 03006KT P6SM SCT100
     FM260100 04006KT P6SM VCSH BKN110
     FM260400 VRB06KT P6SM SCT120=



000
FTUS45 KRIW 251122
TAFBPI
TAF
KBPI 251122Z 2512/2612 VRB05KT P6SM SKC
     FM251900 17006KT P6SM SCT090
     FM252300 VRB10G20KT P6SM VCTS BKN090CB
     FM260200 VRB06KT P6SM SCT100=



000
FTUS45 KRIW 251122
TAFLND
TAF
KLND 251122Z 2512/2612 VRB06KT P6SM SKC
     FM251900 VRB06KT P6SM SCT100
     FM252300 VRB10G20KT P6SM VCSH SCT100 BKN120
     FM260300 VRB05KT P6SM SCT120=



000
FTUS45 KRIW 251122
TAFRKS
TAF
KRKS 251122Z 2512/2612 12006KT P6SM SKC
     FM251900 24008KT P6SM SCT090
     FM252200 24010G20KT P6SM VCTS BKN090CB
     FM260200 20007KT P6SM SCT100=



000
FTUS45 KRIW 251122
TAFJAC
TAF
KJAC 251122Z 2512/2612 36005KT P6SM SCT150
     FM251800 20006KT P6SM SCT090
     FM252200 21006KT P6SM VCTS BKN090CB
     FM260200 VRB04KT P6SM SCT100
      AMD LTD TO CLD VIS AND WIND=



000
FTUS45 KRIW 251122
TAFCOD
TAF
KCOD 251122Z 2512/2612 21005KT P6SM SCT200
     FM251700 12008KT P6SM FEW100 SCT200
     FM260000 14006KT P6SM VCSH BKN100
     FM260300 21005KT P6SM SCT110
      AMD LTD TO CLD VIS AND WIND=



000
FTUS45 KRIW 251122
TAFRIW
TAF
KRIW 251122Z 2512/2612 30007KT P6SM SKC
     FM251400 VRB05KT P6SM SKC
     FM251900 VRB06KT P6SM SCT100
     FM260000 VRB10G20KT P6SM VCSH SCT100 BKN120
     FM260300 31006KT P6SM SCT120=



000
FTUS45 KRIW 251122
TAFWRL
TAF
KWRL 251122Z 2512/2612 VRB05KT P6SM SCT200
     FM252100 VRB05KT P6SM SCT100
     FM260300 16006KT P6SM FEW120=



    US Dept of Commerce
    National Oceanic and Atmospheric Administration
    National Weather Service
    1325 East West Highway
    Silver Spring, MD 20910
    Page Author: NWS Internet Services Team
Disclaimer
Information Quality
Credits
Glossary
Privacy Policy
Freedom of Information Act (FOIA)
About Us
Career Opportunities